Antonia, MO

9:16 PM CDT on July 25, 2016 (GMT -0500)
APRSWXNET | | Change Station

Elev 455 ft 38.40 °N, 90.40 °W | Updated 22 minutes ago

Light Rain
Light Rain
79 °F
Feels Like 83 °F
N
0
Wind Variable Wind from North
Gusts 0.0 mph

Today
High -- | Low -- °F
--% Chance of Precip.
Yesterday
High -- | Low -- °F
Precip. -- in
Pressure 29.98 in
Visibility 10.0 miles
Clouds Mostly Cloudy 2000 ft
Mostly Cloudy 2500 ft
Overcast 4600 ft
Heat Index 83 °F
Dew Point 74 °F
Humidity 86%
Rainfall in
Snow Depth Not available.
5:58 AM 8:17 PM
Waning Gibbous, 60% visible
METAR KCPS 260153Z 08006KT 10SM -RA BKN020 BKN025 OVC046 27/24 A2999 RMK AO2 RAB31 SLP152 P0000 T02720239
Pressure 29.98 in
Visibility 10.0 miles
Clouds Mostly Cloudy 2000 ft
Mostly Cloudy 2500 ft
Overcast 4600 ft
Heat Index 83 °F
Dew Point 74 °F
Humidity 86%
Rainfall in
Snow Depth Not available.
5:58 AM 8:17 PM
Waning Gibbous, 60% visible
METAR KCPS 260153Z 08006KT 10SM -RA BKN020 BKN025 OVC046 27/24 A2999 RMK AO2 RAB31 SLP152 P0000 T02720239
Record highs are possible for parts of the Northeast Monday and Tuesday, as parts of the central U.S. take a little breather from the worst of summer's dog day heat.

Expansive high pressure in the upper atmosphere will focus on parts of the East and West this week, sending heat indices well into the triple digits from the Mid-Atlantic states into the South.

10-Day Weather Forecast

Almanac

Astronomy

Jul. 25, 2016 Rise Set
Actual Time
Civil Twilight
Nautical Twilight
Astronomical Twilight
Moon
Length of Visible Light
Length of Day
Tomorrow will be .
, % of the Moon is Illuminated

Today's Extremes

State Highs State Lows

Community

WunderPhotos

Upload Photos

1,927,503 photos uploaded!

WunderBlog® & News

Nearby

Air Quality

  Air Quality AQ Index Pollutant
Not available.

Snow Depth

Station Depth Elevation

Earthquake Activity

City Distance Mag. Time & Date
Minimum magnitude displayed is 2.5.

Coastal Water Temperatures

Place Temperature

Stations

Nearby Weather Stations

Station Location Temp. Windchill Dew Point Humidity Wind Precip. Elev Updated Type
                   

Watches & Warnings

There are currently no watches in effect.